createdAt,value
2019-01-13T00:00:39.915Z,1001.94
2019-01-13T00:01:39.908Z,1001.89
2019-01-13T00:02:39.899Z,1002.00
2019-01-13T00:03:39.896Z,1002.00
2019-01-13T00:04:39.883Z,1002.00
2019-01-13T00:05:39.872Z,1001.98
2019-01-13T00:06:39.866Z,1001.93
2019-01-13T00:07:39.857Z,1002.01
2019-01-13T00:08:39.852Z,1001.98
2019-01-13T00:09:39.846Z,1001.91
2019-01-13T00:10:39.835Z,1001.99
2019-01-13T00:11:39.827Z,1001.96
2019-01-13T00:12:39.821Z,1001.96
2019-01-13T00:13:39.805Z,1001.99
2019-01-13T00:14:39.804Z,1001.96
2019-01-13T00:15:39.793Z,1001.97
2019-01-13T00:16:39.787Z,1002.01
2019-01-13T00:17:39.773Z,1001.94
2019-01-13T00:18:39.771Z,1001.97
2019-01-13T00:19:39.758Z,1001.99
2019-01-13T00:20:39.751Z,1001.98
2019-01-13T00:21:39.740Z,1001.97
2019-01-13T00:22:39.739Z,1001.99
2019-01-13T00:23:39.726Z,1002.00
2019-01-13T00:24:39.720Z,1001.99
2019-01-13T00:25:39.705Z,1001.97
2019-01-13T00:26:39.699Z,1001.95
2019-01-13T00:27:39.691Z,1001.99
2019-01-13T00:28:39.685Z,1001.99
2019-01-13T00:29:39.679Z,1002.02
2019-01-13T00:30:39.663Z,1002.01
2019-01-13T00:31:39.654Z,1002.02
2019-01-13T00:32:39.652Z,1002.04
2019-01-13T00:33:39.640Z,1002.00
2019-01-13T00:34:39.635Z,1002.02
2019-01-13T00:35:39.621Z,1002.00
2019-01-13T00:36:39.616Z,1002.03
2019-01-13T00:37:39.605Z,1002.02
2019-01-13T00:38:39.604Z,1001.97
2019-01-13T00:39:39.594Z,1001.99
2019-01-13T00:40:39.580Z,1001.94
2019-01-13T00:41:39.581Z,1001.91
2019-01-13T00:42:39.572Z,1001.97
2019-01-13T00:43:39.558Z,1001.96
2019-01-13T00:44:39.554Z,1001.94
2019-01-13T00:45:39.543Z,1001.91
2019-01-13T00:46:39.535Z,1001.90
2019-01-13T00:47:39.523Z,1001.86
2019-01-13T00:48:39.516Z,1001.90
2019-01-13T00:49:39.506Z,1001.86
2019-01-13T00:50:39.503Z,1001.86
2019-01-13T00:51:39.491Z,1001.86
2019-01-13T00:52:39.481Z,1001.87
2019-01-13T00:53:39.479Z,1001.85
2019-01-13T00:54:39.465Z,1001.85
2019-01-13T00:55:39.459Z,1001.87
2019-01-13T00:56:39.450Z,1001.82
2019-01-13T00:57:39.441Z,1001.78
2019-01-13T00:58:39.432Z,1001.78
2019-01-13T00:59:39.428Z,1001.78
2019-01-13T01:00:39.422Z,1001.79
2019-01-13T01:01:39.414Z,1001.75
2019-01-13T01:02:39.406Z,1001.71
2019-01-13T01:03:39.392Z,1001.76
2019-01-13T01:04:39.390Z,1001.77
2019-01-13T01:05:39.378Z,1001.81
2019-01-13T01:06:39.369Z,1001.78
2019-01-13T01:07:39.364Z,1001.79
2019-01-13T01:08:39.351Z,1001.77
2019-01-13T01:09:39.341Z,1001.77
2019-01-13T01:10:39.338Z,1001.76
2019-01-13T01:11:39.326Z,1001.72
2019-01-13T01:12:39.314Z,1001.72
2019-01-13T01:13:39.314Z,1001.71
2019-01-13T01:14:39.302Z,1001.77
2019-01-13T01:15:39.294Z,1001.76
2019-01-13T01:16:39.286Z,1001.73
2019-01-13T01:17:39.280Z,1001.66
2019-01-13T01:18:39.266Z,1001.65
2019-01-13T01:19:39.258Z,1001.54
2019-01-13T01:20:39.257Z,1001.53
2019-01-13T01:21:39.246Z,1001.55
2019-01-13T01:22:39.236Z,1001.58
2019-01-13T01:23:39.228Z,1001.50
2019-01-13T01:24:39.217Z,1001.53
2019-01-13T01:25:39.215Z,1001.44
2019-01-13T01:26:39.206Z,1001.47
2019-01-13T01:27:39.192Z,1001.52
2019-01-13T01:28:39.184Z,1001.52
2019-01-13T01:29:39.179Z,1001.58
2019-01-13T01:30:39.166Z,1001.57
2019-01-13T01:31:39.157Z,1001.57
2019-01-13T01:32:39.149Z,1001.54
2019-01-13T01:33:39.143Z,1001.56
2019-01-13T01:34:39.135Z,1001.53
2019-01-13T01:35:39.131Z,1001.53
2019-01-13T01:36:39.120Z,1001.49
2019-01-13T01:37:39.109Z,1001.49
2019-01-13T01:38:39.108Z,1001.52
2019-01-13T01:39:39.091Z,1001.54
2019-01-13T01:40:39.088Z,1001.51
2019-01-13T01:41:39.073Z,1001.51
2019-01-13T01:42:39.065Z,1001.53
2019-01-13T01:43:39.056Z,1001.52
2019-01-13T01:44:39.055Z,1001.50
2019-01-13T01:45:39.041Z,1001.50
2019-01-13T01:46:39.035Z,1001.48
2019-01-13T01:47:39.024Z,1001.47
2019-01-13T01:48:39.013Z,1001.52
2019-01-13T01:49:39.008Z,1001.50
2019-01-13T01:50:39.005Z,1001.51
2019-01-13T01:51:38.988Z,1001.52
2019-01-13T01:52:38.987Z,1001.47
2019-01-13T01:53:38.975Z,1001.46
2019-01-13T01:54:38.965Z,1001.38
2019-01-13T01:55:38.955Z,1001.32
2019-01-13T01:56:38.951Z,1001.32
2019-01-13T01:57:38.946Z,1001.28
2019-01-13T01:58:38.935Z,1001.30
2019-01-13T01:59:38.924Z,1001.24
2019-01-13T02:00:40.766Z,1001.23
2019-01-13T02:01:38.912Z,1001.23
2019-01-13T02:02:38.903Z,1001.23
2019-01-13T02:03:38.894Z,1001.16
2019-01-13T02:04:38.883Z,1001.11
2019-01-13T02:05:38.877Z,1001.11
2019-01-13T02:06:38.867Z,1001.06
2019-01-13T02:07:38.861Z,1001.00
2019-01-13T02:08:38.847Z,1001.02
2019-01-13T02:09:38.837Z,1001.00
2019-01-13T02:10:38.829Z,1001.04
2019-01-13T02:11:38.826Z,1001.04
2019-01-13T02:12:38.815Z,1001.04
2019-01-13T02:13:38.811Z,1001.00
2019-01-13T02:14:38.799Z,1000.99
2019-01-13T02:15:38.786Z,1000.95
2019-01-13T02:17:38.771Z,1000.93
2019-01-13T02:18:38.761Z,1000.89
2019-01-13T02:19:38.754Z,1000.95
2019-01-13T02:20:38.746Z,1000.95
2019-01-13T02:21:38.740Z,1000.86
2019-01-13T02:22:38.735Z,1000.91
2019-01-13T02:23:38.723Z,1000.81
2019-01-13T02:24:38.715Z,1000.84
2019-01-13T02:25:38.707Z,1000.82
2019-01-13T02:26:38.702Z,1000.84
2019-01-13T02:27:38.690Z,1000.86
2019-01-13T02:28:38.678Z,1000.88
2019-01-13T02:29:38.671Z,1000.87
2019-01-13T02:30:38.661Z,1000.82
2019-01-13T02:31:38.661Z,1000.78
2019-01-13T02:32:38.653Z,1000.83
2019-01-13T02:33:38.641Z,1000.79
2019-01-13T02:34:38.636Z,1000.81
2019-01-13T02:35:38.625Z,1000.86
2019-01-13T02:36:38.616Z,1000.86
2019-01-13T02:37:38.605Z,1000.95
2019-01-13T02:38:38.598Z,1000.94
2019-01-13T02:39:38.595Z,1000.91
2019-01-13T02:40:38.579Z,1000.87
2019-01-13T02:41:38.572Z,1000.87
2019-01-13T02:42:38.565Z,1000.88
2019-01-13T02:43:38.560Z,1000.88
2019-01-13T02:44:38.551Z,1000.92
2019-01-13T02:45:38.545Z,1000.95
2019-01-13T02:46:38.534Z,1000.94
2019-01-13T02:47:38.518Z,1000.93
2019-01-13T02:48:38.515Z,1000.93
2019-01-13T02:49:38.512Z,1000.95
2019-01-13T02:50:38.495Z,1000.97
2019-01-13T02:51:38.485Z,1001.05
2019-01-13T02:52:38.502Z,1001.05
2019-01-13T02:53:38.485Z,1001.02
2019-01-13T02:54:38.464Z,1001.01
2019-01-13T02:55:38.453Z,1001.01
2019-01-13T02:56:38.447Z,1001.03
2019-01-13T02:57:38.442Z,1001.08
2019-01-13T02:58:38.431Z,1001.01
2019-01-13T02:59:38.419Z,1001.03
2019-01-13T03:00:38.417Z,1001.02
2019-01-13T03:01:38.410Z,1000.96
2019-01-13T03:02:38.396Z,1000.93
2019-01-13T03:03:38.391Z,1000.96
2019-01-13T03:04:38.382Z,1000.96
2019-01-13T03:05:38.383Z,1001.00
2019-01-13T03:06:38.371Z,1000.94
2019-01-13T03:07:38.363Z,1000.90
2019-01-13T03:08:38.353Z,1000.85
2019-01-13T03:09:38.346Z,1000.84
2019-01-13T03:10:38.336Z,1000.78
2019-01-13T03:11:38.327Z,1000.78
2019-01-13T03:12:38.315Z,1000.77
2019-01-13T03:13:38.314Z,1000.76
2019-01-13T03:14:38.300Z,1000.74
2019-01-13T03:15:38.289Z,1000.71
2019-01-13T03:16:38.282Z,1000.69
2019-01-13T03:17:38.280Z,1000.67
2019-01-13T03:18:38.276Z,1000.65
2019-01-13T03:19:38.265Z,1000.64
2019-01-13T03:20:38.253Z,1000.54
2019-01-13T03:21:38.250Z,1000.59
2019-01-13T03:22:38.239Z,1000.56
2019-01-13T03:23:38.225Z,1000.52
2019-01-13T03:24:38.222Z,1000.49
2019-01-13T03:25:38.218Z,1000.47
2019-01-13T03:26:38.204Z,1000.51
2019-01-13T03:27:38.201Z,1000.45
2019-01-13T03:28:38.196Z,1000.44
2019-01-13T03:29:38.182Z,1000.42
2019-01-13T03:30:38.174Z,1000.38
2019-01-13T03:31:38.177Z,1000.37
2019-01-13T03:32:38.169Z,1000.30
2019-01-13T03:33:38.147Z,1000.29
2019-01-13T03:34:38.142Z,1000.32
2019-01-13T03:35:38.134Z,1000.34
2019-01-13T03:36:38.125Z,1000.34
2019-01-13T03:37:38.127Z,1000.34
2019-01-13T03:38:38.116Z,1000.34
2019-01-13T03:39:38.109Z,1000.33
2019-01-13T03:40:38.104Z,1000.31
2019-01-13T03:41:38.089Z,1000.25
2019-01-13T03:42:38.073Z,1000.26
2019-01-13T03:43:38.063Z,1000.28
2019-01-13T03:44:38.066Z,1000.28
2019-01-13T03:45:38.057Z,1000.23
2019-01-13T03:46:38.041Z,1000.18
2019-01-13T03:47:38.034Z,1000.14
2019-01-13T03:48:38.030Z,1000.10
2019-01-13T03:49:38.023Z,1000.02
2019-01-13T03:50:38.059Z,1000.02
2019-01-13T03:51:38.004Z,1000.03
2019-01-13T03:52:37.997Z,1000.07
2019-01-13T03:53:37.995Z,999.99
2019-01-13T03:54:37.982Z,999.96
2019-01-13T03:55:37.970Z,999.95
2019-01-13T03:56:37.969Z,999.99
2019-01-13T03:57:37.956Z,999.90
2019-01-13T03:58:37.954Z,999.93
2019-01-13T03:59:37.941Z,999.96
2019-01-13T04:00:37.936Z,999.90
2019-01-13T04:01:37.929Z,999.88
2019-01-13T04:02:37.922Z,999.84
2019-01-13T04:03:37.908Z,999.85
2019-01-13T04:04:37.905Z,999.88
2019-01-13T04:05:37.889Z,999.89
2019-01-13T04:06:37.884Z,999.93
2019-01-13T04:07:37.879Z,999.89
2019-01-13T04:08:37.875Z,999.91
2019-01-13T04:09:37.866Z,999.87
2019-01-13T04:10:37.864Z,999.82
2019-01-13T04:11:37.845Z,999.76
2019-01-13T04:12:37.839Z,999.70
2019-01-13T04:13:37.825Z,999.64
2019-01-13T04:14:37.823Z,999.61
2019-01-13T04:15:37.816Z,999.52
2019-01-13T04:16:37.807Z,999.55
2019-01-13T04:17:37.794Z,999.58
2019-01-13T04:18:37.788Z,999.60
2019-01-13T04:19:37.778Z,999.49
2019-01-13T04:20:37.778Z,999.43
2019-01-13T04:21:37.767Z,999.44
2019-01-13T04:22:37.762Z,999.43
2019-01-13T04:23:37.755Z,999.44
2019-01-13T04:24:37.745Z,999.40
2019-01-13T04:25:37.737Z,999.37
2019-01-13T04:26:37.728Z,999.42
2019-01-13T04:27:37.719Z,999.33
2019-01-13T04:28:37.712Z,999.27
2019-01-13T04:29:37.702Z,999.27
2019-01-13T04:30:37.705Z,999.24
2019-01-13T04:31:37.685Z,999.23
2019-01-13T04:32:37.681Z,999.13
2019-01-13T04:33:37.678Z,999.13
2019-01-13T04:34:37.664Z,999.13
2019-01-13T04:35:37.659Z,999.11
2019-01-13T04:36:37.649Z,999.08
2019-01-13T04:37:37.635Z,999.06
2019-01-13T04:38:37.629Z,999.05
2019-01-13T04:39:37.624Z,999.06
2019-01-13T04:40:37.613Z,999.02
2019-01-13T04:41:37.607Z,999.08
2019-01-13T04:42:37.603Z,999.06
2019-01-13T04:43:37.595Z,999.01
2019-01-13T04:44:37.585Z,999.03
2019-01-13T04:45:37.578Z,999.01
2019-01-13T04:46:38.674Z,999.01
2019-01-13T04:47:37.568Z,998.93
2019-01-13T04:48:37.553Z,998.89
2019-01-13T04:49:37.548Z,998.90
2019-01-13T04:50:37.538Z,998.87
2019-01-13T04:51:37.580Z,998.83
2019-01-13T04:52:37.526Z,998.79
2019-01-13T04:53:37.523Z,998.82
2019-01-13T04:54:37.508Z,998.79
2019-01-13T04:55:37.501Z,998.78
2019-01-13T04:56:37.491Z,998.82
2019-01-13T04:57:37.481Z,998.88
2019-01-13T04:58:37.479Z,998.84
2019-01-13T04:59:37.466Z,998.85
2019-01-13T05:00:37.457Z,998.87
2019-01-13T05:01:37.452Z,998.85
2019-01-13T05:02:37.440Z,998.84
2019-01-13T05:03:37.435Z,998.80
2019-01-13T05:04:37.423Z,998.80
2019-01-13T05:05:37.420Z,998.72
2019-01-13T05:06:37.407Z,998.73
2019-01-13T05:07:37.407Z,998.74
2019-01-13T05:08:37.392Z,998.65
2019-01-13T05:09:37.392Z,998.63
2019-01-13T05:10:37.384Z,998.60
2019-01-13T05:11:37.372Z,998.64
2019-01-13T05:12:37.364Z,998.61
2019-01-13T05:13:37.360Z,998.61
2019-01-13T05:14:37.350Z,998.53
2019-01-13T05:15:37.345Z,998.51
2019-01-13T05:16:37.334Z,998.50
2019-01-13T05:17:37.323Z,998.49
2019-01-13T05:18:37.320Z,998.42
2019-01-13T05:19:37.311Z,998.46
2019-01-13T05:20:37.306Z,998.52
2019-01-13T05:21:37.297Z,998.48
2019-01-13T05:22:37.286Z,998.53
2019-01-13T05:23:37.274Z,998.54
2019-01-13T05:24:37.274Z,998.53
2019-01-13T05:25:37.263Z,998.49
2019-01-13T05:26:37.255Z,998.51
2019-01-13T05:27:37.254Z,998.47
2019-01-13T05:28:37.234Z,998.45
2019-01-13T05:29:37.229Z,998.42
2019-01-13T05:30:37.221Z,998.40
2019-01-13T05:31:41.949Z,998.37
2019-01-13T05:32:37.211Z,998.37
2019-01-13T05:33:37.199Z,998.39
2019-01-13T05:34:37.187Z,998.38
2019-01-13T05:35:37.180Z,998.39
2019-01-13T05:36:37.175Z,998.36
2019-01-13T05:37:37.163Z,998.35
2019-01-13T05:38:37.160Z,998.39
2019-01-13T05:39:37.149Z,998.41
2019-01-13T05:40:37.139Z,998.41
2019-01-13T05:41:37.137Z,998.42
2019-01-13T05:42:37.124Z,998.36
2019-01-13T05:43:37.118Z,998.38
2019-01-13T05:44:37.113Z,998.40
2019-01-13T05:45:37.106Z,998.33
2019-01-13T05:46:37.093Z,998.31
2019-01-13T05:47:37.088Z,998.24
2019-01-13T05:48:37.081Z,998.21
2019-01-13T05:49:37.066Z,998.23
2019-01-13T05:50:37.065Z,998.25
2019-01-13T05:51:37.048Z,998.18
2019-01-13T05:52:37.051Z,998.22
2019-01-13T05:53:37.033Z,998.20
2019-01-13T05:54:37.029Z,998.19
2019-01-13T05:55:37.021Z,998.19
2019-01-13T05:56:37.011Z,998.16
2019-01-13T05:57:37.003Z,998.17
2019-01-13T05:58:36.998Z,998.14
2019-01-13T05:59:36.987Z,998.12
2019-01-13T06:00:36.977Z,998.11
2019-01-13T06:01:36.968Z,998.11
2019-01-13T06:02:36.963Z,998.08
2019-01-13T06:03:36.951Z,998.02
2019-01-13T06:04:36.948Z,998.02
2019-01-13T06:05:36.938Z,997.95
2019-01-13T06:06:36.933Z,997.97
2019-01-13T06:07:36.923Z,997.94
2019-01-13T06:08:36.920Z,997.91
2019-01-13T06:09:36.906Z,997.89
2019-01-13T06:10:36.901Z,997.85
2019-01-13T06:11:36.897Z,997.81
2019-01-13T06:12:36.888Z,997.83
2019-01-13T06:13:36.876Z,997.77
2019-01-13T06:14:36.872Z,997.77
2019-01-13T06:15:36.863Z,997.72
2019-01-13T06:16:36.847Z,997.67
2019-01-13T06:17:36.842Z,997.62
2019-01-13T06:18:36.835Z,997.61
2019-01-13T06:19:36.825Z,997.56
2019-01-13T06:20:36.822Z,997.60
2019-01-13T06:21:36.806Z,997.57
2019-01-13T06:22:36.805Z,997.54
2019-01-13T06:23:36.790Z,997.51
2019-01-13T06:24:36.780Z,997.55
2019-01-13T06:25:36.774Z,997.45
2019-01-13T06:26:36.766Z,997.43
2019-01-13T06:27:36.764Z,997.46
2019-01-13T06:28:36.748Z,997.39
2019-01-13T06:29:36.749Z,997.42
2019-01-13T06:30:36.737Z,997.38
2019-01-13T06:31:36.731Z,997.39
2019-01-13T06:32:36.724Z,997.36
2019-01-13T06:33:36.715Z,997.39
2019-01-13T06:34:36.710Z,997.39
2019-01-13T06:35:36.690Z,997.36
2019-01-13T06:36:36.690Z,997.30
2019-01-13T06:37:36.683Z,997.30
2019-01-13T06:38:36.673Z,997.25
2019-01-13T06:39:36.664Z,997.26
2019-01-13T06:40:36.658Z,997.26
2019-01-13T06:41:36.644Z,997.24
2019-01-13T06:42:36.640Z,997.19
2019-01-13T06:43:36.634Z,997.22
2019-01-13T06:44:36.625Z,997.14
2019-01-13T06:45:36.610Z,997.12
2019-01-13T06:46:36.609Z,997.08
2019-01-13T06:47:36.592Z,997.17
2019-01-13T06:48:36.590Z,997.12
2019-01-13T06:49:36.584Z,997.14
2019-01-13T06:50:36.574Z,997.10
2019-01-13T06:51:36.569Z,997.12
2019-01-13T06:52:36.557Z,997.13
2019-01-13T06:53:36.550Z,997.12
2019-01-13T06:54:36.544Z,997.08
2019-01-13T06:55:36.527Z,997.13
2019-01-13T06:56:36.521Z,997.06
2019-01-13T06:57:36.511Z,997.09
2019-01-13T06:58:36.507Z,997.11
2019-01-13T06:59:36.499Z,997.09
2019-01-13T07:00:36.489Z,996.98
2019-01-13T07:01:36.487Z,997.01
2019-01-13T07:02:36.470Z,996.98
2019-01-13T07:03:36.463Z,996.99
2019-01-13T07:04:36.456Z,996.96
2019-01-13T07:05:36.450Z,997.01
2019-01-13T07:06:36.442Z,997.03
2019-01-13T07:07:37.501Z,996.95
2019-01-13T07:08:36.428Z,996.94
2019-01-13T07:09:36.422Z,996.96
2019-01-13T07:10:36.413Z,996.90
2019-01-13T07:11:36.402Z,996.92
2019-01-13T07:12:36.393Z,996.90
2019-01-13T07:13:36.383Z,996.89
2019-01-13T07:14:36.371Z,996.86
2019-01-13T07:15:36.363Z,996.87
2019-01-13T07:16:36.356Z,996.75
2019-01-13T07:17:36.350Z,996.81
2019-01-13T07:18:36.348Z,996.76
2019-01-13T07:19:36.338Z,996.85
2019-01-13T07:20:36.331Z,996.78
2019-01-13T07:21:36.317Z,996.83
2019-01-13T07:22:36.313Z,996.72
2019-01-13T07:23:36.298Z,996.65
2019-01-13T07:24:36.294Z,996.65
2019-01-13T07:25:36.282Z,996.63
2019-01-13T07:26:36.275Z,996.59
2019-01-13T07:27:36.267Z,996.58
2019-01-13T07:28:36.260Z,996.54
2019-01-13T07:29:36.251Z,996.55
2019-01-13T07:30:36.244Z,996.53
2019-01-13T07:31:36.240Z,996.59
2019-01-13T07:32:36.233Z,996.57
2019-01-13T07:33:36.221Z,996.56
2019-01-13T07:34:36.209Z,996.51
2019-01-13T07:35:36.201Z,996.48
2019-01-13T07:36:36.197Z,996.54
2019-01-13T07:37:36.189Z,996.44
2019-01-13T07:38:36.185Z,996.49
2019-01-13T07:39:36.176Z,996.42
2019-01-13T07:40:36.167Z,996.36
2019-01-13T07:41:36.155Z,996.41
2019-01-13T07:42:36.143Z,996.35
2019-01-13T07:43:36.136Z,996.37
2019-01-13T07:44:36.128Z,996.42
2019-01-13T07:45:36.131Z,996.29
2019-01-13T07:46:36.117Z,996.34
2019-01-13T07:47:36.108Z,996.32
2019-01-13T07:48:36.099Z,996.29
2019-01-13T07:49:36.094Z,996.29
2019-01-13T07:50:36.087Z,996.28
2019-01-13T07:51:36.083Z,996.28
2019-01-13T07:52:36.066Z,996.27
2019-01-13T07:53:36.059Z,996.27
2019-01-13T07:54:36.053Z,996.25
2019-01-13T07:55:36.047Z,996.22
2019-01-13T07:56:36.040Z,996.21
2019-01-13T07:57:36.024Z,996.17
2019-01-13T07:58:36.025Z,996.11
2019-01-13T07:59:36.013Z,996.10
2019-01-13T08:00:36.006Z,996.14
2019-01-13T08:01:35.992Z,996.10
2019-01-13T08:02:35.988Z,996.10
2019-01-13T08:03:35.979Z,996.11
2019-01-13T08:04:35.979Z,996.05
2019-01-13T08:05:35.964Z,996.07
2019-01-13T08:06:35.958Z,996.07
2019-01-13T08:07:35.945Z,996.08
2019-01-13T08:08:35.943Z,996.04
2019-01-13T08:09:35.938Z,996.08
2019-01-13T08:10:35.927Z,996.15
2019-01-13T08:11:35.917Z,996.09
2019-01-13T08:12:35.911Z,996.04
2019-01-13T08:13:35.900Z,996.01
2019-01-13T08:14:35.891Z,996.09
2019-01-13T08:15:35.888Z,995.99
2019-01-13T08:16:35.882Z,996.12
2019-01-13T08:17:35.866Z,996.08
2019-01-13T08:18:35.860Z,996.10
2019-01-13T08:19:35.851Z,995.99
2019-01-13T08:20:35.848Z,995.97
2019-01-13T08:21:35.847Z,995.96
2019-01-13T08:22:35.830Z,995.92
2019-01-13T08:23:35.827Z,995.89
2019-01-13T08:24:35.815Z,995.85
2019-01-13T08:25:35.805Z,995.95
2019-01-13T08:26:35.802Z,995.96
2019-01-13T08:27:35.793Z,995.88
2019-01-13T08:28:35.794Z,995.86
2019-01-13T08:29:35.775Z,995.83
2019-01-13T08:30:35.771Z,995.96
2019-01-13T08:31:35.764Z,995.94
2019-01-13T08:32:35.757Z,995.98
2019-01-13T08:33:35.752Z,996.00
2019-01-13T08:34:35.747Z,995.89
2019-01-13T08:35:35.729Z,995.95
2019-01-13T08:36:35.719Z,995.82
2019-01-13T08:37:35.716Z,995.83
2019-01-13T08:38:35.710Z,995.78
2019-01-13T08:39:35.705Z,995.82
2019-01-13T08:40:35.696Z,995.80
2019-01-13T08:41:35.683Z,995.81
2019-01-13T08:42:35.673Z,995.79
2019-01-13T08:43:35.672Z,995.72
2019-01-13T08:44:35.663Z,995.69
2019-01-13T08:45:35.652Z,995.61
2019-01-13T08:46:35.648Z,995.62
2019-01-13T08:47:35.640Z,995.60
2019-01-13T08:48:35.629Z,995.55
2019-01-13T08:49:35.620Z,995.57
2019-01-13T08:50:35.619Z,995.59
2019-01-13T08:51:35.610Z,995.59
2019-01-13T08:52:35.599Z,995.56
2019-01-13T08:53:35.596Z,995.55
2019-01-13T08:54:35.584Z,995.53
2019-01-13T08:55:35.575Z,995.55
2019-01-13T08:56:35.570Z,995.50
2019-01-13T08:57:35.564Z,995.51
2019-01-13T08:58:35.557Z,995.55
2019-01-13T08:59:35.548Z,995.48
2019-01-13T09:00:35.540Z,995.49
2019-01-13T09:01:35.530Z,995.41
2019-01-13T09:02:35.523Z,995.46
2019-01-13T09:03:35.519Z,995.42
2019-01-13T09:04:35.509Z,995.39
2019-01-13T09:05:35.499Z,995.38
2019-01-13T09:06:35.497Z,995.36
2019-01-13T09:07:35.489Z,995.37
2019-01-13T09:08:35.479Z,995.37
2019-01-13T09:09:35.467Z,995.38
2019-01-13T09:10:35.465Z,995.35
2019-01-13T09:11:35.459Z,995.39
2019-01-13T09:12:35.451Z,995.42
2019-01-13T09:13:35.441Z,995.35
2019-01-13T09:14:35.434Z,995.31
2019-01-13T09:15:35.423Z,995.32
2019-01-13T09:16:35.419Z,995.24
2019-01-13T09:17:35.408Z,995.22
2019-01-13T09:18:35.406Z,995.30
2019-01-13T09:19:35.389Z,995.30
2019-01-13T09:20:35.385Z,995.26
2019-01-13T09:21:35.384Z,995.19
2019-01-13T09:22:35.376Z,995.15
2019-01-13T09:23:35.361Z,995.21
2019-01-13T09:24:35.360Z,995.22
2019-01-13T09:25:35.352Z,995.20
2019-01-13T09:26:35.344Z,995.18
2019-01-13T09:27:35.339Z,995.19
2019-01-13T09:28:35.327Z,995.15
2019-01-13T09:29:42.314Z,995.19
2019-01-13T09:30:35.310Z,995.10
2019-01-13T09:31:35.305Z,995.08
2019-01-13T09:32:39.443Z,995.09
2019-01-13T09:33:35.290Z,994.95
2019-01-13T09:34:35.283Z,995.06
2019-01-13T09:35:35.275Z,995.04
2019-01-13T09:36:35.267Z,995.04
2019-01-13T09:37:35.260Z,995.00
2019-01-13T09:38:35.248Z,994.97
2019-01-13T09:39:35.247Z,994.88
2019-01-13T09:40:35.233Z,994.96
2019-01-13T09:41:35.228Z,994.97
2019-01-13T09:42:35.220Z,994.98
2019-01-13T09:43:35.217Z,994.99
2019-01-13T09:44:35.205Z,994.97
2019-01-13T09:45:35.198Z,994.93
2019-01-13T09:46:35.190Z,994.95
2019-01-13T09:47:35.213Z,994.94
2019-01-13T09:48:35.180Z,994.95
2019-01-13T09:49:35.167Z,994.91
2019-01-13T09:50:35.161Z,995.07
2019-01-13T09:51:35.156Z,995.04
2019-01-13T09:52:35.152Z,995.04
2019-01-13T09:53:35.143Z,995.02
2019-01-13T09:54:35.139Z,995.04
2019-01-13T09:55:35.128Z,994.99
2019-01-13T09:56:35.122Z,995.02
2019-01-13T09:57:35.108Z,994.94
2019-01-13T09:58:35.105Z,994.97
2019-01-13T09:59:35.096Z,995.04
2019-01-13T10:00:35.087Z,995.06
2019-01-13T10:01:35.080Z,995.05
2019-01-13T10:02:35.080Z,995.03
2019-01-13T10:03:35.068Z,994.94
2019-01-13T10:04:35.059Z,994.96
2019-01-13T10:05:35.054Z,994.92
2019-01-13T10:06:35.043Z,994.91
2019-01-13T10:08:35.030Z,994.92
2019-01-13T10:09:35.021Z,994.94
2019-01-13T10:10:35.018Z,994.82
2019-01-13T10:11:35.012Z,994.85
2019-01-13T10:12:35.001Z,994.88
2019-01-13T10:13:34.993Z,994.87
2019-01-13T10:14:34.994Z,994.93
2019-01-13T10:15:34.985Z,994.87
2019-01-13T10:16:34.969Z,994.78
2019-01-13T10:17:34.970Z,994.81
2019-01-13T10:18:34.963Z,994.75
2019-01-13T10:19:34.953Z,994.78
2019-01-13T10:20:36.330Z,994.70
2019-01-13T10:21:34.939Z,994.74
2019-01-13T10:22:34.928Z,994.68
2019-01-13T10:23:34.923Z,994.70
2019-01-13T10:24:34.917Z,994.67
2019-01-13T10:25:34.907Z,994.47
2019-01-13T10:26:34.899Z,994.60
2019-01-13T10:27:34.894Z,994.55
2019-01-13T10:28:34.885Z,994.53
2019-01-13T10:29:34.883Z,994.45
2019-01-13T10:30:34.873Z,994.46
2019-01-13T10:31:34.864Z,994.47
2019-01-13T10:32:34.864Z,994.49
2019-01-13T10:33:34.852Z,994.51
2019-01-13T10:34:34.847Z,994.46
2019-01-13T10:35:34.845Z,994.44
2019-01-13T10:36:34.834Z,994.46
2019-01-13T10:37:34.822Z,994.42
2019-01-13T10:38:34.822Z,994.41
2019-01-13T10:39:34.806Z,994.41
2019-01-13T10:40:34.808Z,994.34
2019-01-13T10:41:34.800Z,994.38
2019-01-13T10:42:34.788Z,994.34
2019-01-13T10:43:34.786Z,994.34
2019-01-13T10:44:34.781Z,994.27
2019-01-13T10:45:34.773Z,994.32
2019-01-13T10:46:35.169Z,994.23
2019-01-13T10:47:34.759Z,994.25
2019-01-13T10:48:34.745Z,994.29
2019-01-13T10:49:34.743Z,994.33
2019-01-13T10:50:34.738Z,994.27
2019-01-13T10:51:34.729Z,994.27
2019-01-13T10:52:34.922Z,994.28
2019-01-13T10:53:34.711Z,994.20
2019-01-13T10:54:34.704Z,994.19
2019-01-13T10:55:34.700Z,994.11
2019-01-13T10:56:34.689Z,994.10
2019-01-13T10:57:34.690Z,994.14
2019-01-13T10:58:34.678Z,994.21
2019-01-13T10:59:34.676Z,994.11
2019-01-13T11:00:34.661Z,994.09
2019-01-13T11:01:34.658Z,994.19
2019-01-13T11:02:34.651Z,994.14
2019-01-13T11:03:34.641Z,994.10
2019-01-13T11:04:34.639Z,994.12
2019-01-13T11:05:34.628Z,994.11
2019-01-13T11:06:34.627Z,994.04
2019-01-13T11:07:34.616Z,994.01
2019-01-13T11:08:34.606Z,993.99
2019-01-13T11:09:34.605Z,993.97
2019-01-13T11:10:34.596Z,993.91
2019-01-13T11:11:34.590Z,993.91
2019-01-13T11:12:34.581Z,993.88
2019-01-13T11:13:34.580Z,993.85
2019-01-13T11:14:34.576Z,993.88
2019-01-13T11:15:34.558Z,993.93
2019-01-13T11:16:34.559Z,993.89
2019-01-13T11:17:34.553Z,993.88
2019-01-13T11:18:34.538Z,993.86
2019-01-13T11:19:34.541Z,993.84
2019-01-13T11:20:34.532Z,993.79
2019-01-13T11:21:34.518Z,993.79
2019-01-13T11:22:34.533Z,993.80
2019-01-13T11:23:34.502Z,993.78
2019-01-13T11:24:34.702Z,993.82
2019-01-13T11:25:34.491Z,993.77
2019-01-13T11:26:34.488Z,993.73
2019-01-13T11:27:34.483Z,993.75
2019-01-13T11:28:34.470Z,993.75
2019-01-13T11:29:34.465Z,993.68
2019-01-13T11:30:34.455Z,993.65
2019-01-13T11:31:34.455Z,993.61
2019-01-13T11:32:34.448Z,993.58
2019-01-13T11:33:34.436Z,993.56
2019-01-13T11:34:34.430Z,993.54
2019-01-13T11:35:34.419Z,993.49
2019-01-13T11:36:34.413Z,993.53
2019-01-13T11:37:34.407Z,993.49
2019-01-13T11:38:34.399Z,993.44
2019-01-13T11:39:34.399Z,993.43
2019-01-13T11:40:34.396Z,993.41
2019-01-13T11:41:34.385Z,993.37
2019-01-13T11:42:34.374Z,993.32
2019-01-13T11:43:34.364Z,993.36
2019-01-13T11:44:34.356Z,993.31
2019-01-13T11:45:34.350Z,993.34
2019-01-13T11:46:34.348Z,993.31
2019-01-13T11:47:34.342Z,993.28
2019-01-13T11:48:34.335Z,993.35
2019-01-13T11:49:34.328Z,993.29
2019-01-13T11:50:34.317Z,993.22
2019-01-13T11:51:34.309Z,993.17
2019-01-13T11:52:34.310Z,993.11
2019-01-13T11:53:34.298Z,993.11
2019-01-13T11:54:34.295Z,993.08
2019-01-13T11:55:34.280Z,993.10
2019-01-13T11:56:34.282Z,993.10
2019-01-13T11:57:34.276Z,993.10
2019-01-13T11:58:34.260Z,993.06
2019-01-13T11:59:34.263Z,993.09
2019-01-13T12:00:34.247Z,993.08
2019-01-13T12:01:34.242Z,993.11
2019-01-13T12:02:34.236Z,993.15
2019-01-13T12:03:34.232Z,992.98
2019-01-13T12:04:34.228Z,993.02
2019-01-13T12:05:34.217Z,993.02
2019-01-13T12:06:34.213Z,992.93
2019-01-13T12:07:34.203Z,992.93
2019-01-13T12:08:34.200Z,992.88
2019-01-13T12:09:34.187Z,992.85
2019-01-13T12:10:34.183Z,992.84
2019-01-13T12:11:34.172Z,992.89
2019-01-13T12:12:34.375Z,992.93
2019-01-13T12:13:34.163Z,992.93
2019-01-13T12:14:34.155Z,992.92
2019-01-13T12:15:34.148Z,992.88
2019-01-13T12:16:34.141Z,992.93
2019-01-13T12:17:34.129Z,992.82
2019-01-13T12:18:40.299Z,992.85
2019-01-13T12:19:34.119Z,992.84
2019-01-13T12:20:34.107Z,992.81
2019-01-13T12:21:34.106Z,992.75
2019-01-13T12:22:34.095Z,992.79
2019-01-13T12:23:34.094Z,992.74